sensor_id;sensor_type;location;lat;lon;timestamp;P1;durP1;ratioP1;P2;durP2;ratioP2
20283;SDS011;10301;50.832;4.080;2022-08-03T00:01:26;6.18;;;1.33;;
20283;SDS011;10301;50.832;4.080;2022-08-03T00:03:52;6.22;;;1.33;;
20283;SDS011;10301;50.832;4.080;2022-08-03T00:06:18;9.27;;;1.48;;
20283;SDS011;10301;50.832;4.080;2022-08-03T00:08:43;6.28;;;1.20;;
20283;SDS011;10301;50.832;4.080;2022-08-03T00:11:09;7.68;;;1.45;;
20283;SDS011;10301;50.832;4.080;2022-08-03T00:13:35;4.80;;;1.27;;
20283;SDS011;10301;50.832;4.080;2022-08-03T00:16:01;7.82;;;1.50;;
20283;SDS011;10301;50.832;4.080;2022-08-03T00:18:26;7.85;;;1.75;;
20283;SDS011;10301;50.832;4.080;2022-08-03T00:20:52;5.63;;;1.08;;
20283;SDS011;10301;50.832;4.080;2022-08-03T00:23:17;4.95;;;1.50;;
20283;SDS011;10301;50.832;4.080;2022-08-03T00:25:43;8.23;;;1.55;;
20283;SDS011;10301;50.832;4.080;2022-08-03T00:28:09;5.68;;;1.42;;
20283;SDS011;10301;50.832;4.080;2022-08-03T00:30:34;9.02;;;1.90;;
20283;SDS011;10301;50.832;4.080;2022-08-03T00:33:00;7.05;;;1.50;;
20283;SDS011;10301;50.832;4.080;2022-08-03T00:35:27;6.10;;;1.60;;
20283;SDS011;10301;50.832;4.080;2022-08-03T00:37:53;7.32;;;1.20;;
20283;SDS011;10301;50.832;4.080;2022-08-03T00:40:19;10.50;;;1.70;;
20283;SDS011;10301;50.832;4.080;2022-08-03T00:42:48;5.82;;;1.50;;
20283;SDS011;10301;50.832;4.080;2022-08-03T00:45:17;9.45;;;1.90;;
20283;SDS011;10301;50.832;4.080;2022-08-03T00:47:44;7.88;;;1.70;;
20283;SDS011;10301;50.832;4.080;2022-08-03T00:50:10;6.30;;;1.80;;
20283;SDS011;10301;50.832;4.080;2022-08-03T00:52:35;8.63;;;1.80;;
20283;SDS011;10301;50.832;4.080;2022-08-03T00:55:02;9.52;;;1.75;;
20283;SDS011;10301;50.832;4.080;2022-08-03T00:57:29;6.15;;;1.60;;
20283;SDS011;10301;50.832;4.080;2022-08-03T00:59:56;5.43;;;1.40;;
20283;SDS011;10301;50.832;4.080;2022-08-03T01:02:23;7.78;;;1.60;;
20283;SDS011;10301;50.832;4.080;2022-08-03T01:04:50;8.73;;;2.00;;
20283;SDS011;10301;50.832;4.080;2022-08-03T01:12:43;9.23;;;1.67;;
20283;SDS011;10301;50.832;4.080;2022-08-03T01:15:30;12.45;;;1.80;;
20283;SDS011;10301;50.832;4.080;2022-08-03T01:18:45;6.13;;;1.67;;
20283;SDS011;10301;50.832;4.080;2022-08-03T01:21:30;6.38;;;1.52;;
20283;SDS011;10301;50.832;4.080;2022-08-03T01:26:52;7.40;;;1.85;;
20283;SDS011;10301;50.832;4.080;2022-08-03T01:32:18;13.88;;;1.90;;
20283;SDS011;10301;50.832;4.080;2022-08-03T01:34:50;5.07;;;1.20;;
20283;SDS011;10301;50.832;4.080;2022-08-03T01:37:25;7.90;;;1.48;;
20283;SDS011;10301;50.832;4.080;2022-08-03T01:40:02;5.18;;;1.30;;
20283;SDS011;10301;50.832;4.080;2022-08-03T01:42:30;8.27;;;1.58;;
20283;SDS011;10301;50.832;4.080;2022-08-03T01:44:57;7.13;;;1.42;;
20283;SDS011;10301;50.832;4.080;2022-08-03T01:47:26;8.27;;;1.58;;
20283;SDS011;10301;50.832;4.080;2022-08-03T01:49:53;5.68;;;1.60;;
20283;SDS011;10301;50.832;4.080;2022-08-03T01:52:21;8.75;;;1.90;;
20283;SDS011;10301;50.832;4.080;2022-08-03T01:54:50;6.03;;;1.77;;
20283;SDS011;10301;50.832;4.080;2022-08-03T01:57:17;6.72;;;2.08;;
20283;SDS011;10301;50.832;4.080;2022-08-03T01:59:46;5.50;;;1.75;;
20283;SDS011;10301;50.832;4.080;2022-08-03T02:02:15;6.25;;;2.05;;
20283;SDS011;10301;50.832;4.080;2022-08-03T02:04:41;7.50;;;2.17;;
20283;SDS011;10301;50.832;4.080;2022-08-03T02:07:08;8.98;;;1.63;;
20283;SDS011;10301;50.832;4.080;2022-08-03T02:09:39;7.40;;;1.67;;
20283;SDS011;10301;50.832;4.080;2022-08-03T02:12:08;13.45;;;3.58;;
20283;SDS011;10301;50.832;4.080;2022-08-03T02:14:34;8.48;;;1.98;;
20283;SDS011;10301;50.832;4.080;2022-08-03T02:17:01;9.90;;;2.10;;
20283;SDS011;10301;50.832;4.080;2022-08-03T02:19:28;6.65;;;1.65;;
20283;SDS011;10301;50.832;4.080;2022-08-03T02:21:56;10.18;;;2.00;;
20283;SDS011;10301;50.832;4.080;2022-08-03T02:24:22;5.53;;;1.50;;
20283;SDS011;10301;50.832;4.080;2022-08-03T02:26:48;6.38;;;1.83;;
20283;SDS011;10301;50.832;4.080;2022-08-03T02:29:18;8.98;;;2.00;;
20283;SDS011;10301;50.832;4.080;2022-08-03T02:31:46;5.63;;;1.67;;
20283;SDS011;10301;50.832;4.080;2022-08-03T02:34:14;5.78;;;1.70;;
20283;SDS011;10301;50.832;4.080;2022-08-03T02:36:43;9.48;;;1.98;;
20283;SDS011;10301;50.832;4.080;2022-08-03T02:39:14;8.98;;;1.90;;
20283;SDS011;10301;50.832;4.080;2022-08-03T02:41:45;8.02;;;2.17;;
20283;SDS011;10301;50.832;4.080;2022-08-03T02:44:16;6.70;;;1.60;;
20283;SDS011;10301;50.832;4.080;2022-08-03T02:46:45;8.88;;;2.20;;
20283;SDS011;10301;50.832;4.080;2022-08-03T02:49:14;7.10;;;1.95;;
20283;SDS011;10301;50.832;4.080;2022-08-03T02:51:43;9.50;;;2.15;;
20283;SDS011;10301;50.832;4.080;2022-08-03T02:54:11;8.25;;;2.03;;
20283;SDS011;10301;50.832;4.080;2022-08-03T02:56:41;7.57;;;1.70;;
20283;SDS011;10301;50.832;4.080;2022-08-03T02:59:08;6.43;;;1.75;;
20283;SDS011;10301;50.832;4.080;2022-08-03T03:01:36;9.27;;;2.13;;
20283;SDS011;10301;50.832;4.080;2022-08-03T03:04:03;11.45;;;2.83;;
20283;SDS011;10301;50.832;4.080;2022-08-03T03:06:30;5.68;;;1.98;;
20283;SDS011;10301;50.832;4.080;2022-08-03T03:08:56;7.97;;;2.20;;
20283;SDS011;10301;50.832;4.080;2022-08-03T03:11:22;6.82;;;1.85;;
20283;SDS011;10301;50.832;4.080;2022-08-03T03:13:50;6.45;;;2.00;;
20283;SDS011;10301;50.832;4.080;2022-08-03T03:16:20;6.35;;;2.10;;
20283;SDS011;10301;50.832;4.080;2022-08-03T03:18:50;9.68;;;2.05;;
20283;SDS011;10301;50.832;4.080;2022-08-03T03:21:17;10.43;;;2.20;;
20283;SDS011;10301;50.832;4.080;2022-08-03T03:23:43;9.60;;;2.13;;
20283;SDS011;10301;50.832;4.080;2022-08-03T03:26:10;10.55;;;2.22;;
20283;SDS011;10301;50.832;4.080;2022-08-03T03:28:38;6.07;;;1.92;;
20283;SDS011;10301;50.832;4.080;2022-08-03T03:31:05;7.32;;;1.70;;
20283;SDS011;10301;50.832;4.080;2022-08-03T03:33:32;6.85;;;1.92;;
20283;SDS011;10301;50.832;4.080;2022-08-03T03:35:58;7.15;;;2.13;;
20283;SDS011;10301;50.832;4.080;2022-08-03T03:38:24;6.28;;;1.77;;
20283;SDS011;10301;50.832;4.080;2022-08-03T03:40:50;8.77;;;2.00;;
20283;SDS011;10301;50.832;4.080;2022-08-03T03:43:16;8.27;;;2.03;;
20283;SDS011;10301;50.832;4.080;2022-08-03T03:45:42;9.07;;;2.10;;
20283;SDS011;10301;50.832;4.080;2022-08-03T03:48:09;6.70;;;2.13;;
20283;SDS011;10301;50.832;4.080;2022-08-03T03:50:35;11.00;;;2.15;;
20283;SDS011;10301;50.832;4.080;2022-08-03T03:53:07;8.63;;;2.05;;
20283;SDS011;10301;50.832;4.080;2022-08-03T03:55:37;6.40;;;1.88;;
20283;SDS011;10301;50.832;4.080;2022-08-03T03:58:04;12.80;;;2.33;;
20283;SDS011;10301;50.832;4.080;2022-08-03T04:00:30;6.20;;;2.00;;
20283;SDS011;10301;50.832;4.080;2022-08-03T04:02:56;7.35;;;2.25;;
20283;SDS011;10301;50.832;4.080;2022-08-03T04:05:22;7.18;;;2.05;;
20283;SDS011;10301;50.832;4.080;2022-08-03T04:08:08;6.72;;;2.28;;
20283;SDS011;10301;50.832;4.080;2022-08-03T04:13:23;9.27;;;2.17;;
20283;SDS011;10301;50.832;4.080;2022-08-03T04:15:55;7.53;;;2.30;;
20283;SDS011;10301;50.832;4.080;2022-08-03T04:18:22;10.68;;;2.67;;
20283;SDS011;10301;50.832;4.080;2022-08-03T04:20:49;9.65;;;2.65;;
20283;SDS011;10301;50.832;4.080;2022-08-03T04:23:17;9.85;;;2.40;;
20283;SDS011;10301;50.832;4.080;2022-08-03T04:25:46;8.55;;;2.30;;
20283;SDS011;10301;50.832;4.080;2022-08-03T04:28:15;8.32;;;2.60;;
20283;SDS011;10301;50.832;4.080;2022-08-03T04:30:44;9.65;;;2.42;;
20283;SDS011;10301;50.832;4.080;2022-08-03T04:33:12;8.75;;;2.30;;
20283;SDS011;10301;50.832;4.080;2022-08-03T04:35:40;7.95;;;2.30;;
20283;SDS011;10301;50.832;4.080;2022-08-03T04:38:07;12.20;;;3.00;;
20283;SDS011;10301;50.832;4.080;2022-08-03T04:40:36;8.00;;;2.70;;
20283;SDS011;10301;50.832;4.080;2022-08-03T04:43:05;12.95;;;2.75;;
20283;SDS011;10301;50.832;4.080;2022-08-03T04:45:33;6.45;;;2.45;;
20283;SDS011;10301;50.832;4.080;2022-08-03T04:48:00;7.72;;;2.67;;
20283;SDS011;10301;50.832;4.080;2022-08-03T04:50:26;6.00;;;2.28;;
20283;SDS011;10301;50.832;4.080;2022-08-03T04:52:52;13.35;;;2.60;;
20283;SDS011;10301;50.832;4.080;2022-08-03T04:55:29;10.43;;;2.55;;
20283;SDS011;10301;50.832;4.080;2022-08-03T04:57:56;7.80;;;2.67;;
20283;SDS011;10301;50.832;4.080;2022-08-03T05:00:25;12.80;;;2.60;;
20283;SDS011;10301;50.832;4.080;2022-08-03T05:02:51;9.55;;;2.25;;
20283;SDS011;10301;50.832;4.080;2022-08-03T05:05:17;8.63;;;2.35;;
20283;SDS011;10301;50.832;4.080;2022-08-03T05:07:43;6.03;;;2.22;;
20283;SDS011;10301;50.832;4.080;2022-08-03T05:10:09;8.02;;;2.20;;
20283;SDS011;10301;50.832;4.080;2022-08-03T05:12:35;9.48;;;2.47;;
20283;SDS011;10301;50.832;4.080;2022-08-03T05:15:01;11.40;;;2.30;;
20283;SDS011;10301;50.832;4.080;2022-08-03T05:17:27;10.40;;;2.58;;
20283;SDS011;10301;50.832;4.080;2022-08-03T05:19:53;8.38;;;2.60;;
20283;SDS011;10301;50.832;4.080;2022-08-03T05:22:22;9.13;;;2.40;;
20283;SDS011;10301;50.832;4.080;2022-08-03T05:24:48;11.45;;;2.90;;
20283;SDS011;10301;50.832;4.080;2022-08-03T05:27:13;8.93;;;2.50;;
20283;SDS011;10301;50.832;4.080;2022-08-03T05:29:45;12.65;;;2.78;;
20283;SDS011;10301;50.832;4.080;2022-08-03T05:32:13;12.60;;;2.83;;
20283;SDS011;10301;50.832;4.080;2022-08-03T05:34:39;11.57;;;2.83;;
20283;SDS011;10301;50.832;4.080;2022-08-03T05:37:05;8.90;;;2.90;;
20283;SDS011;10301;50.832;4.080;2022-08-03T05:39:34;9.73;;;2.95;;
20283;SDS011;10301;50.832;4.080;2022-08-03T05:42:00;10.13;;;2.47;;
20283;SDS011;10301;50.832;4.080;2022-08-03T05:44:27;8.57;;;2.90;;
20283;SDS011;10301;50.832;4.080;2022-08-03T05:46:52;8.70;;;3.10;;
20283;SDS011;10301;50.832;4.080;2022-08-03T05:49:18;11.43;;;3.83;;
20283;SDS011;10301;50.832;4.080;2022-08-03T05:51:44;10.45;;;2.80;;
20283;SDS011;10301;50.832;4.080;2022-08-03T05:54:10;7.63;;;2.47;;
20283;SDS011;10301;50.832;4.080;2022-08-03T05:56:35;9.27;;;2.67;;
20283;SDS011;10301;50.832;4.080;2022-08-03T05:59:01;8.70;;;4.05;;
20283;SDS011;10301;50.832;4.080;2022-08-03T06:01:27;10.50;;;3.22;;
20283;SDS011;10301;50.832;4.080;2022-08-03T06:03:53;10.50;;;2.55;;
20283;SDS011;10301;50.832;4.080;2022-08-03T06:06:19;12.93;;;2.83;;
20283;SDS011;10301;50.832;4.080;2022-08-03T06:08:45;8.95;;;2.50;;
20283;SDS011;10301;50.832;4.080;2022-08-03T06:11:12;11.02;;;2.85;;
20283;SDS011;10301;50.832;4.080;2022-08-03T06:13:38;11.43;;;3.03;;
20283;SDS011;10301;50.832;4.080;2022-08-03T06:16:04;8.43;;;2.92;;
20283;SDS011;10301;50.832;4.080;2022-08-03T06:18:30;12.23;;;3.30;;
20283;SDS011;10301;50.832;4.080;2022-08-03T06:20:56;10.00;;;2.75;;
20283;SDS011;10301;50.832;4.080;2022-08-03T06:23:21;9.98;;;2.67;;
20283;SDS011;10301;50.832;4.080;2022-08-03T06:25:47;7.25;;;1.98;;
20283;SDS011;10301;50.832;4.080;2022-08-03T06:28:13;9.23;;;2.80;;
20283;SDS011;10301;50.832;4.080;2022-08-03T06:30:39;8.20;;;2.17;;
20283;SDS011;10301;50.832;4.080;2022-08-03T06:33:05;7.30;;;2.35;;
20283;SDS011;10301;50.832;4.080;2022-08-03T06:35:31;7.30;;;2.00;;
20283;SDS011;10301;50.832;4.080;2022-08-03T06:37:57;8.23;;;2.15;;
20283;SDS011;10301;50.832;4.080;2022-08-03T06:40:23;10.38;;;2.38;;
20283;SDS011;10301;50.832;4.080;2022-08-03T06:42:59;9.95;;;2.30;;
20283;SDS011;10301;50.832;4.080;2022-08-03T06:45:26;7.13;;;2.10;;
20283;SDS011;10301;50.832;4.080;2022-08-03T06:48:03;9.73;;;2.35;;
20283;SDS011;10301;50.832;4.080;2022-08-03T06:50:28;10.48;;;2.10;;
20283;SDS011;10301;50.832;4.080;2022-08-03T06:52:55;9.80;;;2.17;;
20283;SDS011;10301;50.832;4.080;2022-08-03T06:55:21;7.32;;;2.42;;
20283;SDS011;10301;50.832;4.080;2022-08-03T06:57:46;8.57;;;1.95;;
20283;SDS011;10301;50.832;4.080;2022-08-03T07:00:12;10.10;;;1.90;;
20283;SDS011;10301;50.832;4.080;2022-08-03T07:02:38;7.47;;;2.50;;
20283;SDS011;10301;50.832;4.080;2022-08-03T07:05:04;8.40;;;2.05;;
20283;SDS011;10301;50.832;4.080;2022-08-03T07:07:30;10.65;;;2.13;;
20283;SDS011;10301;50.832;4.080;2022-08-03T07:09:56;9.60;;;2.50;;
20283;SDS011;10301;50.832;4.080;2022-08-03T07:12:22;11.15;;;1.90;;
20283;SDS011;10301;50.832;4.080;2022-08-03T07:14:47;5.35;;;1.92;;
20283;SDS011;10301;50.832;4.080;2022-08-03T07:17:13;7.55;;;2.20;;
20283;SDS011;10301;50.832;4.080;2022-08-03T07:19:39;6.95;;;2.38;;
20283;SDS011;10301;50.832;4.080;2022-08-03T07:22:04;10.10;;;2.45;;
20283;SDS011;10301;50.832;4.080;2022-08-03T07:24:30;7.30;;;1.85;;
20283;SDS011;10301;50.832;4.080;2022-08-03T07:26:56;6.57;;;1.92;;
20283;SDS011;10301;50.832;4.080;2022-08-03T07:29:21;12.32;;;2.10;;
20283;SDS011;10301;50.832;4.080;2022-08-03T07:31:47;6.90;;;1.73;;
20283;SDS011;10301;50.832;4.080;2022-08-03T07:34:12;8.82;;;1.92;;
20283;SDS011;10301;50.832;4.080;2022-08-03T07:36:38;6.90;;;1.40;;
20283;SDS011;10301;50.832;4.080;2022-08-03T07:39:04;7.40;;;1.48;;
20283;SDS011;10301;50.832;4.080;2022-08-03T07:41:30;9.40;;;2.65;;
20283;SDS011;10301;50.832;4.080;2022-08-03T07:43:55;6.72;;;1.77;;
20283;SDS011;10301;50.832;4.080;2022-08-03T07:46:21;8.82;;;1.30;;
20283;SDS011;10301;50.832;4.080;2022-08-03T07:48:47;8.20;;;1.60;;
20283;SDS011;10301;50.832;4.080;2022-08-03T07:51:12;8.13;;;1.45;;
20283;SDS011;10301;50.832;4.080;2022-08-03T07:53:38;6.68;;;1.80;;
20283;SDS011;10301;50.832;4.080;2022-08-03T07:56:04;10.50;;;1.58;;
20283;SDS011;10301;50.832;4.080;2022-08-03T07:58:29;8.48;;;2.08;;
20283;SDS011;10301;50.832;4.080;2022-08-03T08:00:55;11.63;;;1.58;;
20283;SDS011;10301;50.832;4.080;2022-08-03T08:03:21;7.05;;;1.30;;
20283;SDS011;10301;50.832;4.080;2022-08-03T08:05:47;6.80;;;1.35;;
20283;SDS011;10301;50.832;4.080;2022-08-03T08:08:13;8.23;;;1.70;;
20283;SDS011;10301;50.832;4.080;2022-08-03T08:10:38;6.85;;;1.63;;
20283;SDS011;10301;50.832;4.080;2022-08-03T08:13:04;7.97;;;1.48;;
20283;SDS011;10301;50.832;4.080;2022-08-03T08:15:30;7.70;;;1.55;;
20283;SDS011;10301;50.832;4.080;2022-08-03T08:17:56;10.18;;;2.47;;
20283;SDS011;10301;50.832;4.080;2022-08-03T08:20:33;7.72;;;1.73;;
20283;SDS011;10301;50.832;4.080;2022-08-03T08:23:02;6.70;;;1.65;;
20283;SDS011;10301;50.832;4.080;2022-08-03T08:25:30;5.78;;;1.80;;
20283;SDS011;10301;50.832;4.080;2022-08-03T08:27:56;9.02;;;1.30;;
20283;SDS011;10301;50.832;4.080;2022-08-03T08:30:25;8.90;;;2.00;;
20283;SDS011;10301;50.832;4.080;2022-08-03T08:32:51;10.18;;;1.98;;
20283;SDS011;10301;50.832;4.080;2022-08-03T08:35:17;10.93;;;1.60;;
20283;SDS011;10301;50.832;4.080;2022-08-03T08:37:42;9.02;;;1.90;;
20283;SDS011;10301;50.832;4.080;2022-08-03T08:40:08;11.90;;;1.90;;
20283;SDS011;10301;50.832;4.080;2022-08-03T08:42:41;7.53;;;1.75;;
20283;SDS011;10301;50.832;4.080;2022-08-03T08:45:08;11.70;;;1.80;;
20283;SDS011;10301;50.832;4.080;2022-08-03T08:47:39;10.10;;;2.00;;
20283;SDS011;10301;50.832;4.080;2022-08-03T08:50:08;7.85;;;1.30;;
20283;SDS011;10301;50.832;4.080;2022-08-03T08:52:35;8.63;;;2.03;;
20283;SDS011;10301;50.832;4.080;2022-08-03T08:55:04;10.50;;;1.63;;
20283;SDS011;10301;50.832;4.080;2022-08-03T08:57:35;9.80;;;2.10;;
20283;SDS011;10301;50.832;4.080;2022-08-03T09:00:06;9.25;;;1.75;;
20283;SDS011;10301;50.832;4.080;2022-08-03T09:02:34;7.28;;;1.50;;
20283;SDS011;10301;50.832;4.080;2022-08-03T09:05:00;7.95;;;1.30;;
20283;SDS011;10301;50.832;4.080;2022-08-03T09:07:27;9.52;;;1.63;;
20283;SDS011;10301;50.832;4.080;2022-08-03T09:09:53;9.77;;;1.23;;
20283;SDS011;10301;50.832;4.080;2022-08-03T09:12:18;9.43;;;1.67;;
20283;SDS011;10301;50.832;4.080;2022-08-03T09:14:44;15.73;;;2.10;;
20283;SDS011;10301;50.832;4.080;2022-08-03T09:17:10;9.95;;;1.65;;
20283;SDS011;10301;50.832;4.080;2022-08-03T09:19:36;7.57;;;1.55;;
20283;SDS011;10301;50.832;4.080;2022-08-03T09:22:14;9.85;;;1.80;;
20283;SDS011;10301;50.832;4.080;2022-08-03T09:24:58;6.75;;;1.40;;
20283;SDS011;10301;50.832;4.080;2022-08-03T09:27:27;9.70;;;1.50;;
20283;SDS011;10301;50.832;4.080;2022-08-03T09:29:53;7.38;;;1.48;;
20283;SDS011;10301;50.832;4.080;2022-08-03T09:32:22;7.53;;;1.23;;
20283;SDS011;10301;50.832;4.080;2022-08-03T09:34:50;8.15;;;1.60;;
20283;SDS011;10301;50.832;4.080;2022-08-03T09:37:18;5.05;;;1.00;;
20283;SDS011;10301;50.832;4.080;2022-08-03T09:39:45;6.70;;;1.40;;
20283;SDS011;10301;50.832;4.080;2022-08-03T09:44:39;5.53;;;1.27;;
20283;SDS011;10301;50.832;4.080;2022-08-03T09:47:08;7.57;;;1.60;;
20283;SDS011;10301;50.832;4.080;2022-08-03T09:49:35;6.63;;;0.95;;
20283;SDS011;10301;50.832;4.080;2022-08-03T09:52:10;6.82;;;1.20;;
20283;SDS011;10301;50.832;4.080;2022-08-03T09:54:38;6.68;;;1.10;;
20283;SDS011;10301;50.832;4.080;2022-08-03T09:57:04;6.18;;;1.50;;
20283;SDS011;10301;50.832;4.080;2022-08-03T09:59:31;6.70;;;1.15;;
20283;SDS011;10301;50.832;4.080;2022-08-03T10:01:58;5.82;;;1.20;;
20283;SDS011;10301;50.832;4.080;2022-08-03T10:04:24;6.60;;;1.08;;
20283;SDS011;10301;50.832;4.080;2022-08-03T10:07:01;6.30;;;1.27;;
20283;SDS011;10301;50.832;4.080;2022-08-03T10:09:31;7.72;;;1.23;;
20283;SDS011;10301;50.832;4.080;2022-08-03T10:11:57;4.90;;;1.35;;
20283;SDS011;10301;50.832;4.080;2022-08-03T10:14:31;4.30;;;1.15;;
20283;SDS011;10301;50.832;4.080;2022-08-03T10:16:59;6.85;;;1.25;;
20283;SDS011;10301;50.832;4.080;2022-08-03T10:19:24;5.05;;;1.13;;
20283;SDS011;10301;50.832;4.080;2022-08-03T10:21:57;6.00;;;1.00;;
20283;SDS011;10301;50.832;4.080;2022-08-03T10:24:27;6.20;;;1.20;;
20283;SDS011;10301;50.832;4.080;2022-08-03T10:27:02;7.38;;;1.40;;
20283;SDS011;10301;50.832;4.080;2022-08-03T10:29:31;4.70;;;1.00;;
20283;SDS011;10301;50.832;4.080;2022-08-03T10:32:03;4.82;;;1.08;;
20283;SDS011;10301;50.832;4.080;2022-08-03T10:34:39;5.28;;;0.88;;
20283;SDS011;10301;50.832;4.080;2022-08-03T10:37:07;7.07;;;1.30;;
20283;SDS011;10301;50.832;4.080;2022-08-03T10:39:35;5.63;;;1.10;;
20283;SDS011;10301;50.832;4.080;2022-08-03T10:42:02;5.32;;;1.13;;
20283;SDS011;10301;50.832;4.080;2022-08-03T10:44:32;4.35;;;1.00;;
20283;SDS011;10301;50.832;4.080;2022-08-03T10:47:03;4.68;;;1.15;;
20283;SDS011;10301;50.832;4.080;2022-08-03T10:49:30;4.07;;;1.23;;
20283;SDS011;10301;50.832;4.080;2022-08-03T10:51:56;3.95;;;0.68;;
20283;SDS011;10301;50.832;4.080;2022-08-03T11:00:10;3.60;;;1.00;;
20283;SDS011;10301;50.832;4.080;2022-08-03T11:05:27;9.60;;;1.45;;
20283;SDS011;10301;50.832;4.080;2022-08-03T11:10:42;9.68;;;1.33;;
20283;SDS011;10301;50.832;4.080;2022-08-03T11:13:07;5.88;;;1.20;;
20283;SDS011;10301;50.832;4.080;2022-08-03T11:15:34;4.53;;;1.13;;
20283;SDS011;10301;50.832;4.080;2022-08-03T11:18:08;4.05;;;1.00;;
20283;SDS011;10301;50.832;4.080;2022-08-03T11:20:48;4.78;;;1.00;;
20283;SDS011;10301;50.832;4.080;2022-08-03T11:23:47;5.20;;;0.88;;
20283;SDS011;10301;50.832;4.080;2022-08-03T11:26:10;2.58;;;0.80;;
20283;SDS011;10301;50.832;4.080;2022-08-03T11:28:43;4.75;;;0.90;;
20283;SDS011;10301;50.832;4.080;2022-08-03T11:34:10;5.93;;;1.00;;
20283;SDS011;10301;50.832;4.080;2022-08-03T11:39:41;3.40;;;1.00;;
20283;SDS011;10301;50.832;4.080;2022-08-03T11:44:51;2.83;;;0.90;;
20283;SDS011;10301;50.832;4.080;2022-08-03T11:47:19;3.88;;;0.90;;
20283;SDS011;10301;50.832;4.080;2022-08-03T11:49:46;3.22;;;0.80;;
20283;SDS011;10301;50.832;4.080;2022-08-03T11:52:13;4.95;;;1.13;;
20283;SDS011;10301;50.832;4.080;2022-08-03T11:54:41;4.65;;;1.10;;
20283;SDS011;10301;50.832;4.080;2022-08-03T11:57:07;4.85;;;1.20;;
20283;SDS011;10301;50.832;4.080;2022-08-03T11:59:33;9.75;;;1.08;;
20283;SDS011;10301;50.832;4.080;2022-08-03T12:02:09;6.50;;;1.13;;
20283;SDS011;10301;50.832;4.080;2022-08-03T12:04:52;3.42;;;0.93;;
20283;SDS011;10301;50.832;4.080;2022-08-03T12:07:27;3.13;;;0.93;;
20283;SDS011;10301;50.832;4.080;2022-08-03T12:10:10;5.68;;;1.00;;
20283;SDS011;10301;50.832;4.080;2022-08-03T12:12:37;5.57;;;0.98;;
20283;SDS011;10301;50.832;4.080;2022-08-03T12:15:05;4.57;;;0.90;;
20283;SDS011;10301;50.832;4.080;2022-08-03T12:17:35;7.80;;;1.20;;
20283;SDS011;10301;50.832;4.080;2022-08-03T12:20:03;5.93;;;1.08;;
20283;SDS011;10301;50.832;4.080;2022-08-03T12:22:37;5.82;;;0.88;;
20283;SDS011;10301;50.832;4.080;2022-08-03T12:25:04;3.90;;;0.80;;
20283;SDS011;10301;50.832;4.080;2022-08-03T12:27:31;4.70;;;0.80;;
20283;SDS011;10301;50.832;4.080;2022-08-03T12:29:57;4.93;;;1.00;;
20283;SDS011;10301;50.832;4.080;2022-08-03T12:32:26;3.58;;;0.77;;
20283;SDS011;10301;50.832;4.080;2022-08-03T12:34:52;4.50;;;0.93;;
20283;SDS011;10301;50.832;4.080;2022-08-03T12:37:19;7.22;;;1.15;;
20283;SDS011;10301;50.832;4.080;2022-08-03T12:39:52;9.63;;;1.27;;
20283;SDS011;10301;50.832;4.080;2022-08-03T12:42:20;6.03;;;1.25;;
20283;SDS011;10301;50.832;4.080;2022-08-03T12:44:46;19.17;;;2.28;;
20283;SDS011;10301;50.832;4.080;2022-08-03T12:47:14;6.25;;;1.33;;
20283;SDS011;10301;50.832;4.080;2022-08-03T12:49:48;8.73;;;1.45;;
20283;SDS011;10301;50.832;4.080;2022-08-03T12:52:15;5.82;;;1.13;;
20283;SDS011;10301;50.832;4.080;2022-08-03T12:54:42;5.75;;;1.20;;
20283;SDS011;10301;50.832;4.080;2022-08-03T12:57:17;7.15;;;1.30;;
20283;SDS011;10301;50.832;4.080;2022-08-03T12:59:44;4.68;;;0.90;;
20283;SDS011;10301;50.832;4.080;2022-08-03T13:02:13;9.18;;;1.73;;
20283;SDS011;10301;50.832;4.080;2022-08-03T13:04:40;13.48;;;1.58;;
20283;SDS011;10301;50.832;4.080;2022-08-03T13:07:07;7.03;;;1.30;;
20283;SDS011;10301;50.832;4.080;2022-08-03T13:09:41;5.72;;;1.42;;
20283;SDS011;10301;50.832;4.080;2022-08-03T13:12:15;8.38;;;1.33;;
20283;SDS011;10301;50.832;4.080;2022-08-03T13:14:43;10.82;;;1.83;;
20283;SDS011;10301;50.832;4.080;2022-08-03T13:17:11;11.48;;;1.25;;
20283;SDS011;10301;50.832;4.080;2022-08-03T13:19:37;18.55;;;2.47;;
20283;SDS011;10301;50.832;4.080;2022-08-03T13:22:10;5.32;;;1.08;;
20283;SDS011;10301;50.832;4.080;2022-08-03T13:24:47;9.50;;;1.45;;
20283;SDS011;10301;50.832;4.080;2022-08-03T13:27:14;21.05;;;2.55;;
20283;SDS011;10301;50.832;4.080;2022-08-03T13:29:40;7.10;;;1.40;;
20283;SDS011;10301;50.832;4.080;2022-08-03T13:32:07;8.10;;;1.50;;
20283;SDS011;10301;50.832;4.080;2022-08-03T13:34:33;5.05;;;1.13;;
20283;SDS011;10301;50.832;4.080;2022-08-03T13:36:59;7.13;;;1.10;;
20283;SDS011;10301;50.832;4.080;2022-08-03T13:39:25;4.50;;;1.08;;
20283;SDS011;10301;50.832;4.080;2022-08-03T13:41:51;4.80;;;1.30;;
20283;SDS011;10301;50.832;4.080;2022-08-03T13:44:17;5.03;;;1.20;;
20283;SDS011;10301;50.832;4.080;2022-08-03T13:46:43;5.88;;;1.00;;
20283;SDS011;10301;50.832;4.080;2022-08-03T13:49:12;4.60;;;1.20;;
20283;SDS011;10301;50.832;4.080;2022-08-03T13:51:38;5.60;;;1.30;;
20283;SDS011;10301;50.832;4.080;2022-08-03T13:54:04;7.97;;;1.27;;
20283;SDS011;10301;50.832;4.080;2022-08-03T13:56:30;5.32;;;1.50;;
20283;SDS011;10301;50.832;4.080;2022-08-03T13:58:56;5.55;;;0.80;;
20283;SDS011;10301;50.832;4.080;2022-08-03T14:01:23;4.88;;;1.27;;
20283;SDS011;10301;50.832;4.080;2022-08-03T14:03:49;4.47;;;1.15;;
20283;SDS011;10301;50.832;4.080;2022-08-03T14:06:20;5.10;;;1.20;;
20283;SDS011;10301;50.832;4.080;2022-08-03T14:08:46;4.07;;;1.05;;
20283;SDS011;10301;50.832;4.080;2022-08-03T14:11:13;6.05;;;1.27;;
20283;SDS011;10301;50.832;4.080;2022-08-03T14:13:39;4.10;;;1.10;;
20283;SDS011;10301;50.832;4.080;2022-08-03T14:16:04;3.75;;;1.10;;
20283;SDS011;10301;50.832;4.080;2022-08-03T14:18:30;6.40;;;1.02;;
20283;SDS011;10301;50.832;4.080;2022-08-03T14:20:57;4.47;;;1.20;;
20283;SDS011;10301;50.832;4.080;2022-08-03T14:23:23;4.57;;;1.45;;
20283;SDS011;10301;50.832;4.080;2022-08-03T14:25:48;4.50;;;1.10;;
20283;SDS011;10301;50.832;4.080;2022-08-03T14:28:14;3.95;;;0.90;;
20283;SDS011;10301;50.832;4.080;2022-08-03T14:30:40;8.70;;;1.30;;
20283;SDS011;10301;50.832;4.080;2022-08-03T14:33:06;6.68;;;1.15;;
20283;SDS011;10301;50.832;4.080;2022-08-03T14:35:32;6.38;;;1.00;;
20283;SDS011;10301;50.832;4.080;2022-08-03T14:37:57;7.03;;;1.30;;
20283;SDS011;10301;50.832;4.080;2022-08-03T14:40:23;5.30;;;1.00;;
20283;SDS011;10301;50.832;4.080;2022-08-03T14:42:49;6.05;;;1.23;;
20283;SDS011;10301;50.832;4.080;2022-08-03T14:45:14;6.18;;;1.17;;
20283;SDS011;10301;50.832;4.080;2022-08-03T14:47:40;5.88;;;1.05;;
20283;SDS011;10301;50.832;4.080;2022-08-03T14:50:06;6.63;;;1.30;;
20283;SDS011;10301;50.832;4.080;2022-08-03T14:52:32;4.35;;;1.10;;
20283;SDS011;10301;50.832;4.080;2022-08-03T14:54:58;6.78;;;1.45;;
20283;SDS011;10301;50.832;4.080;2022-08-03T14:57:24;5.07;;;1.15;;
20283;SDS011;10301;50.832;4.080;2022-08-03T14:59:50;5.20;;;0.75;;
20283;SDS011;10301;50.832;4.080;2022-08-03T15:02:16;3.80;;;1.10;;
20283;SDS011;10301;50.832;4.080;2022-08-03T15:04:42;4.90;;;1.60;;
20283;SDS011;10301;50.832;4.080;2022-08-03T15:07:08;7.38;;;1.30;;
20283;SDS011;10301;50.832;4.080;2022-08-03T15:09:34;4.32;;;1.33;;
20283;SDS011;10301;50.832;4.080;2022-08-03T15:12:00;7.00;;;1.30;;
20283;SDS011;10301;50.832;4.080;2022-08-03T15:14:25;2.63;;;0.90;;
20283;SDS011;10301;50.832;4.080;2022-08-03T15:16:51;3.95;;;1.10;;
20283;SDS011;10301;50.832;4.080;2022-08-03T15:19:17;5.93;;;1.10;;
20283;SDS011;10301;50.832;4.080;2022-08-03T15:21:43;4.82;;;1.13;;
20283;SDS011;10301;50.832;4.080;2022-08-03T15:24:08;4.47;;;1.23;;
20283;SDS011;10301;50.832;4.080;2022-08-03T15:26:34;3.45;;;1.20;;